createdAt,value
2018-08-12T00:03:43.926Z,1.20
2018-08-12T00:08:54.316Z,0.80
2018-08-12T00:14:03.381Z,1.00
2018-08-12T00:19:12.673Z,1.10
2018-08-12T00:24:22.510Z,1.17
2018-08-12T00:29:31.820Z,1.07
2018-08-12T00:34:40.448Z,1.00
2018-08-12T00:39:50.088Z,1.17
2018-08-12T00:44:59.367Z,1.27
2018-08-12T00:50:09.196Z,1.30
2018-08-12T00:55:18.699Z,1.23
2018-08-12T01:00:27.533Z,1.23
2018-08-12T01:05:36.351Z,1.40
2018-08-12T01:10:45.423Z,1.13
2018-08-12T01:15:54.287Z,1.30
2018-08-12T01:21:03.745Z,1.30
2018-08-12T01:26:12.792Z,1.50
2018-08-12T01:31:22.960Z,1.37
2018-08-12T01:36:32.658Z,1.27
2018-08-12T01:41:42.010Z,1.40
2018-08-12T01:46:51.298Z,1.23
2018-08-12T01:52:00.713Z,1.20
2018-08-12T01:57:09.633Z,1.50
2018-08-12T02:02:19.131Z,1.50
2018-08-12T02:07:28.549Z,1.40
2018-08-12T02:12:38.148Z,1.53
2018-08-12T02:17:47.727Z,1.60
2018-08-12T02:22:56.997Z,1.50
2018-08-12T02:28:06.525Z,1.33
2018-08-12T02:33:15.720Z,1.60
2018-08-12T02:38:24.754Z,1.50
2018-08-12T02:43:33.664Z,1.60
2018-08-12T02:48:43.350Z,1.70
2018-08-12T02:53:52.762Z,1.53
2018-08-12T02:59:01.701Z,1.70
2018-08-12T03:04:10.605Z,1.30
2018-08-12T03:09:19.973Z,2.27
2018-08-12T03:14:29.207Z,1.50
2018-08-12T03:19:38.115Z,1.60
2018-08-12T03:24:47.857Z,1.50
2018-08-12T03:29:56.626Z,1.50
2018-08-12T03:35:05.738Z,1.73
2018-08-12T03:40:14.980Z,1.67
2018-08-12T03:45:23.807Z,1.60
2018-08-12T03:50:33.436Z,1.57
2018-08-12T03:55:43.040Z,1.80
2018-08-12T04:00:52.546Z,1.50
2018-08-12T04:06:02.094Z,1.67
2018-08-12T04:11:11.045Z,1.60
2018-08-12T04:16:20.706Z,1.40
2018-08-12T04:21:29.846Z,1.50
2018-08-12T04:26:38.993Z,1.47
2018-08-12T04:31:48.638Z,1.70
2018-08-12T04:36:57.512Z,1.37
2018-08-12T04:42:06.641Z,1.50
2018-08-12T04:47:15.967Z,1.17
2018-08-12T04:52:25.533Z,1.20
2018-08-12T04:57:34.780Z,1.13
2018-08-12T05:02:44.170Z,1.13
2018-08-12T05:07:53.722Z,0.90
2018-08-12T05:13:02.474Z,1.07
2018-08-12T05:18:12.033Z,1.30
2018-08-12T05:23:21.468Z,1.33
2018-08-12T05:28:30.642Z,1.70
2018-08-12T05:33:39.474Z,1.55
2018-08-12T05:38:57.065Z,1.60
2018-08-12T05:44:06.967Z,1.55
2018-08-12T05:49:16.469Z,1.85
2018-08-12T05:54:26.034Z,1.70
2018-08-12T05:59:35.257Z,1.95
2018-08-12T06:09:57.359Z,1.35
2018-08-12T06:15:06.879Z,1.77
2018-08-12T06:20:16.364Z,1.82
2018-08-12T06:25:25.316Z,1.60
2018-08-12T06:30:34.340Z,1.40
2018-08-12T06:35:43.515Z,1.40
2018-08-12T06:40:52.969Z,1.20
2018-08-12T06:46:02.164Z,1.30
2018-08-12T06:51:11.281Z,1.20
2018-08-12T06:56:20.216Z,1.37
2018-08-12T07:01:29.234Z,1.10
2018-08-12T07:06:38.425Z,1.00
2018-08-12T07:11:47.571Z,0.90
2018-08-12T07:16:56.801Z,0.80
2018-08-12T07:22:06.049Z,0.97
2018-08-12T07:27:15.171Z,0.80
2018-08-12T07:32:24.648Z,0.93
2018-08-12T07:37:34.793Z,1.00
2018-08-12T07:42:43.720Z,0.87
2018-08-12T07:47:52.698Z,0.80
2018-08-12T07:53:01.941Z,0.87
2018-08-12T07:58:11.284Z,0.73
2018-08-12T08:03:20.171Z,0.80
2018-08-12T08:08:29.721Z,1.20
2018-08-12T08:13:39.247Z,0.80
2018-08-12T08:18:48.191Z,0.87
2018-08-12T08:23:57.583Z,0.90
2018-08-12T08:29:06.947Z,1.00
2018-08-12T08:34:15.553Z,1.00
2018-08-12T08:39:24.897Z,1.00
2018-08-12T08:44:34.568Z,1.07
2018-08-12T08:49:43.223Z,1.07
2018-08-12T08:54:52.728Z,1.13
2018-08-12T09:00:01.450Z,1.40
2018-08-12T09:05:10.744Z,1.10
2018-08-12T09:10:19.849Z,1.20
2018-08-12T09:15:29.861Z,1.17
2018-08-12T09:20:39.469Z,1.50
2018-08-12T09:25:48.364Z,1.45
2018-08-12T09:30:57.500Z,1.35
2018-08-12T09:36:07.096Z,1.40
2018-08-12T09:41:16.242Z,1.15
2018-08-12T09:46:25.559Z,1.40
2018-08-12T09:51:34.556Z,1.30
2018-08-12T09:56:43.302Z,1.10
2018-08-12T10:01:52.047Z,1.42
2018-08-12T10:07:01.342Z,1.27
2018-08-12T10:12:10.206Z,1.20
2018-08-12T10:17:19.181Z,1.10
2018-08-12T10:22:28.172Z,1.25
2018-08-12T10:27:37.116Z,1.25
2018-08-12T10:32:45.876Z,1.02
2018-08-12T10:37:55.762Z,1.20
2018-08-12T10:43:04.777Z,1.42
2018-08-12T10:48:13.681Z,1.15
2018-08-12T10:53:22.879Z,1.00
2018-08-12T10:58:32.500Z,1.15
2018-08-12T11:03:41.519Z,1.10
2018-08-12T11:08:50.276Z,1.00
2018-08-12T11:14:00.242Z,1.27
2018-08-12T11:19:09.448Z,1.27
2018-08-12T11:24:18.439Z,1.00
2018-08-12T11:29:27.725Z,1.20
2018-08-12T11:34:36.687Z,1.10
2018-08-12T11:39:45.390Z,1.00
2018-08-12T11:44:54.534Z,1.20
2018-08-12T11:50:04.325Z,1.80
2018-08-12T11:55:15.429Z,1.67
2018-08-12T12:00:24.702Z,1.27
2018-08-12T12:05:33.946Z,1.20
2018-08-12T12:10:42.856Z,1.20
2018-08-12T12:15:52.064Z,1.17
2018-08-12T12:21:01.073Z,1.30
2018-08-12T12:26:10.048Z,1.00
2018-08-12T12:31:19.164Z,1.00
2018-08-12T12:36:28.769Z,0.97
2018-08-12T12:41:37.812Z,1.20
2018-08-12T12:46:47.163Z,1.40
2018-08-12T12:51:56.548Z,0.93
2018-08-12T12:57:05.591Z,1.10
2018-08-12T13:02:14.367Z,1.20
2018-08-12T13:07:23.461Z,1.00
2018-08-12T13:12:32.832Z,1.10
2018-08-12T13:17:42.506Z,1.10
2018-08-12T13:22:52.044Z,1.00
2018-08-12T13:28:01.874Z,1.00
2018-08-12T13:33:11.167Z,1.10
2018-08-12T13:38:20.460Z,1.07
2018-08-12T13:43:29.646Z,1.00
2018-08-12T13:48:38.721Z,1.27
2018-08-12T13:53:47.705Z,1.20
2018-08-12T13:58:57.063Z,1.15
2018-08-12T14:04:05.838Z,0.93
2018-08-12T14:09:14.837Z,1.10
2018-08-12T14:14:24.196Z,1.40
2018-08-12T14:19:33.414Z,1.40
2018-08-12T14:24:43.443Z,1.20
2018-08-12T14:29:52.418Z,1.10
2018-08-12T14:35:02.213Z,1.55
2018-08-12T14:40:12.249Z,1.10
2018-08-12T14:45:21.517Z,0.90
2018-08-12T14:50:30.879Z,1.37
2018-08-12T14:55:39.579Z,1.00
2018-08-12T15:00:48.657Z,1.10
2018-08-12T15:05:58.064Z,1.20
2018-08-12T15:11:07.127Z,1.00
2018-08-12T15:16:16.500Z,1.20
2018-08-12T15:21:25.654Z,1.12
2018-08-12T15:26:34.988Z,1.10
2018-08-12T15:31:43.867Z,1.35
2018-08-12T15:36:52.993Z,1.17
2018-08-12T15:42:02.420Z,0.88
2018-08-12T15:47:11.251Z,1.20
2018-08-12T15:52:20.428Z,0.93
2018-08-12T15:57:29.515Z,1.00
2018-08-12T16:02:38.890Z,1.20
2018-08-12T16:07:48.145Z,1.07
2018-08-12T16:12:57.492Z,1.20
2018-08-12T16:18:06.728Z,1.12
2018-08-12T16:23:16.040Z,1.27
2018-08-12T16:28:24.999Z,1.00
2018-08-12T16:33:34.333Z,1.13
2018-08-12T16:38:43.709Z,1.07
2018-08-12T16:43:52.348Z,1.13
2018-08-12T16:49:01.474Z,1.40
2018-08-12T16:54:10.678Z,1.10
2018-08-12T16:59:19.841Z,1.20
2018-08-12T17:04:29.306Z,1.30
2018-08-12T17:09:38.270Z,1.40
2018-08-12T17:14:47.210Z,1.20
2018-08-12T17:19:56.180Z,1.03
2018-08-12T17:25:05.628Z,1.43
2018-08-12T17:30:14.343Z,2.67
2018-08-12T17:35:23.066Z,3.00
2018-08-12T17:40:32.147Z,4.30
2018-08-12T17:45:41.004Z,3.63
2018-08-12T17:50:49.969Z,3.30
2018-08-12T17:56:00.100Z,3.70
2018-08-12T18:01:09.617Z,2.00
2018-08-12T18:06:18.915Z,1.73
2018-08-12T18:11:28.170Z,2.10
2018-08-12T18:16:37.488Z,1.90
2018-08-12T18:21:46.964Z,1.30
2018-08-12T18:26:57.760Z,1.40
2018-08-12T18:32:06.501Z,1.60
2018-08-12T18:37:15.740Z,2.20
2018-08-12T18:42:25.220Z,1.80
2018-08-12T18:47:34.748Z,1.80
2018-08-12T18:52:45.130Z,1.80
2018-08-12T18:57:54.070Z,1.50
2018-08-12T19:03:03.731Z,1.33
2018-08-12T19:08:12.494Z,3.07
2018-08-12T19:13:22.793Z,2.30
2018-08-12T19:18:32.197Z,2.20
2018-08-12T19:23:44.668Z,1.80
2018-08-12T19:28:55.412Z,2.77
2018-08-12T19:34:04.288Z,2.30
2018-08-12T19:39:13.184Z,4.20
2018-08-12T19:44:22.174Z,2.87
2018-08-12T19:49:31.446Z,1.60
2018-08-12T19:54:40.626Z,1.70
2018-08-12T19:59:49.996Z,1.60
2018-08-12T20:04:59.205Z,2.00
2018-08-12T20:10:08.670Z,2.10
2018-08-12T20:15:39.423Z,2.20
2018-08-12T20:20:48.728Z,1.70
2018-08-12T20:25:58.424Z,2.33
2018-08-12T20:31:07.407Z,3.50
2018-08-12T20:36:16.690Z,2.43
2018-08-12T20:41:25.928Z,2.00
2018-08-12T20:46:35.272Z,3.13
2018-08-12T20:51:44.359Z,1.80
2018-08-12T20:56:53.430Z,1.80
2018-08-12T21:02:02.940Z,1.63
2018-08-12T21:07:12.561Z,2.17
2018-08-12T21:12:22.375Z,1.73
2018-08-12T21:17:31.935Z,1.77
2018-08-12T21:22:41.356Z,1.80
2018-08-12T21:27:50.354Z,1.73
2018-08-12T21:32:59.561Z,1.70
2018-08-12T21:38:08.545Z,1.60
2018-08-12T21:43:17.822Z,1.60
2018-08-12T21:48:27.245Z,1.80
2018-08-12T21:53:36.107Z,1.70
2018-08-12T21:58:45.038Z,1.83
2018-08-12T22:03:54.472Z,1.70
2018-08-12T22:09:06.051Z,1.60
2018-08-12T22:14:14.749Z,3.10
2018-08-12T22:19:23.952Z,1.70
2018-08-12T22:24:33.098Z,2.17
2018-08-12T22:29:42.276Z,2.10
2018-08-12T22:34:51.571Z,1.90
2018-08-12T22:40:01.178Z,1.80
2018-08-12T22:45:10.640Z,1.90
2018-08-12T22:50:20.160Z,1.97
2018-08-12T22:55:28.897Z,2.20
2018-08-12T23:00:38.084Z,2.13
2018-08-12T23:05:47.495Z,1.93
2018-08-12T23:10:56.554Z,2.40
2018-08-12T23:16:16.997Z,2.30
2018-08-12T23:21:25.919Z,2.20
2018-08-12T23:26:34.848Z,2.10
2018-08-12T23:31:43.746Z,2.20
2018-08-12T23:36:53.273Z,2.30
2018-08-12T23:42:02.647Z,2.03
2018-08-12T23:47:11.782Z,2.53
2018-08-12T23:52:21.111Z,2.00
2018-08-12T23:57:30.178Z,2.47
